Hlavní strana
METAR-TAF:

METAR-TAF

Letiště :

Rantoul National Aviation Center Airport (Frank Elliott Field)

Rantoul, Illinois, Spojené státy americké

zeměpisná šířka: 40-17-37N, zeměpisná délka: 088-08-33W, výška: 225 m

Aktuální stav počasí

Zpráva byla vytvořena před 22 minutami, v 20:55 UTC
Východní vítr 9 kt
Teplota 6°C
Vlhkost vzduchu 100%
Tlak 1006 hPa
Viditelnost: 16.1 km
Zataženo ve výšce 800 ft
slabé mrholení

METAR: KTIP 242055Z AUTO 08009KT 10SM -DZ OVC008 06/06 A2972 RMK AO2 60005 T00600058

Čas: 15:17 (21:17 UTC)


TAF: chybějící

Stav a předpovědi počasí z více než 4 000 letišť (zprávy METAR a TAF).

Červené a žluté tečky na mapě představují dostupné meteorologické stanice.

Když kurzor umístíte na tečku, zobrazí se název stanice.

Pak kliknutím zobrazíte stav a předpověď počasí.

Chcete-li změnit mapu, kliknutím na zelené tlačítko se znaménkem +mapu přiblížíte, kliknutím na zelené tlačítko se znaménkem – mapu oddálíte a kliknutím na zelené šipky přejdete na sousední mapy.


METAR-TAF: